JNA811 RKPC-RKSS
Flight info
| Callsign | JNA811 |
|---|---|
| Flight time | N/A |
| Altitude | 21000 |
| Route | KAMIT2E KAMIT Y722 OLMEN OLMEN2T |
| Aircraft | B739/M-SDE2E3FGHIRWXY/LB1 |
Departure
| Time | 2025-09-09 15:00 |
|---|---|
| Airport | Jeju International Airport (RKPC) |
Arrival
| Time | N/A |
|---|---|
| Airport | Gimpo International Airport (RKSS) |
| Time | Latitude | Longitude | Altitude | Speed | Heading |
|---|---|---|---|---|---|
| 2025-09-09 14:39 | 33.50704 | 126.48793 | 134 ft | 0 kts | 329° |
| 2025-09-09 14:53 | 33.50722 | 126.48653 | 134 ft | 17 kts | 238° |
| 2025-09-09 14:53 | 33.50613 | 126.48439 | 134 ft | 14 kts | 238° |
| 2025-09-09 14:54 | 33.50503 | 126.48227 | 134 ft | 17 kts | 238° |
| 2025-09-09 14:54 | 33.50360 | 126.47951 | 134 ft | 19 kts | 238° |
| 2025-09-09 14:55 | 33.50225 | 126.47690 | 134 ft | 18 kts | 238° |
| 2025-09-09 14:55 | 33.50098 | 126.47440 | 134 ft | 18 kts | 238° |
| 2025-09-09 14:56 | 33.49949 | 126.47148 | 133 ft | 20 kts | 239° |
| 2025-09-09 14:56 | 33.49886 | 126.47025 | 134 ft | 16 kts | 240° |
| 2025-09-09 14:57 | 33.50042 | 126.46953 | 132 ft | 0 kts | 59° |
| 2025-09-09 14:59 | 33.50244 | 126.47346 | 133 ft | 89 kts | 58° |
| 2025-09-09 14:59 | 33.51269 | 126.49343 | 423 ft | 169 kts | 59° |
| 2025-09-09 15:00 | 33.52777 | 126.51752 | 1665 ft | 181 kts | 45° |
| 2025-09-09 15:00 | 33.53695 | 126.52788 | 2374 ft | 190 kts | 44° |
| 2025-09-09 15:01 | 33.57189 | 126.56657 | 3245 ft | 263 kts | 43° |
| 2025-09-09 15:01 | 33.59951 | 126.59728 | 4630 ft | 280 kts | 43° |
| 2025-09-09 15:02 | 33.62841 | 126.62955 | 6279 ft | 287 kts | 42° |
| 2025-09-09 15:02 | 33.65823 | 126.66292 | 7726 ft | 299 kts | 42° |
| 2025-09-09 15:03 | 33.68915 | 126.69756 | 9241 ft | 307 kts | 42° |
| 2025-09-09 15:03 | 33.72753 | 126.71721 | 9982 ft | 307 kts | 4° |
| 2025-09-09 15:04 | 33.77009 | 126.72142 | 9983 ft | 308 kts | 2° |
| 2025-09-09 15:04 | 33.79145 | 126.72331 | 9992 ft | 308 kts | 1° |
| 2025-09-09 15:05 | 33.85568 | 126.72960 | 9987 ft | 310 kts | 2° |
| 2025-09-09 15:05 | 33.89870 | 126.73405 | 9993 ft | 310 kts | 2° |
| 2025-09-09 15:06 | 33.94164 | 126.73858 | 9994 ft | 309 kts | 2° |
| 2025-09-09 15:06 | 33.98455 | 126.74307 | 10135 ft | 317 kts | 2° |
| 2025-09-09 15:07 | 34.03174 | 126.74798 | 10463 ft | 363 kts | 2° |
| 2025-09-09 15:07 | 34.08388 | 126.75350 | 11270 ft | 383 kts | 3° |
| 2025-09-09 15:07 | 34.11055 | 126.75635 | 11886 ft | 386 kts | 3° |
| 2025-09-09 15:08 | 34.16443 | 126.76209 | 13080 ft | 392 kts | 3° |
| 2025-09-09 15:09 | 34.24662 | 126.77080 | 14653 ft | 401 kts | 2° |
| 2025-09-09 15:09 | 34.30255 | 126.77672 | 15659 ft | 406 kts | 2° |
| 2025-09-09 15:10 | 34.35928 | 126.78274 | 16641 ft | 411 kts | 1° |
| 2025-09-09 15:10 | 34.41660 | 126.78883 | 17598 ft | 416 kts | 1° |
| 2025-09-09 15:11 | 34.47468 | 126.79502 | 18465 ft | 421 kts | 1° |
| 2025-09-09 15:11 | 34.53356 | 126.80129 | 19162 ft | 428 kts | 1° |
| 2025-09-09 15:12 | 34.59336 | 126.80768 | 19849 ft | 435 kts | 1° |
| 2025-09-09 15:12 | 34.62357 | 126.81091 | 20303 ft | 433 kts | 1° |
| 2025-09-09 15:13 | 34.74378 | 126.82378 | 21032 ft | 447 kts | 0° |
| 2025-09-09 15:13 | 34.80675 | 126.83050 | 21028 ft | 458 kts | 0° |
| 2025-09-09 15:14 | 34.83836 | 126.83394 | 21029 ft | 455 kts | 1° |
| 2025-09-09 15:14 | 34.90084 | 126.84072 | 21029 ft | 453 kts | 0° |
| 2025-09-09 15:15 | 34.96373 | 126.84751 | 21032 ft | 454 kts | 0° |
| 2025-09-09 15:15 | 35.02667 | 126.85429 | 21030 ft | 455 kts | 0° |
| 2025-09-09 15:16 | 35.08987 | 126.86113 | 21039 ft | 456 kts | 0° |
| 2025-09-09 15:16 | 35.12147 | 126.86455 | 21041 ft | 456 kts | 0° |
| 2025-09-09 15:17 | 35.21646 | 126.87485 | 21040 ft | 457 kts | 0° |
| 2025-09-09 15:17 | 35.27939 | 126.88169 | 21041 ft | 456 kts | 0° |
| 2025-09-09 15:18 | 35.34262 | 126.88858 | 21042 ft | 456 kts | 0° |
| 2025-09-09 15:18 | 35.40583 | 126.89548 | 21051 ft | 455 kts | 0° |
| 2025-09-09 15:19 | 35.46896 | 126.90237 | 21047 ft | 456 kts | 0° |
| 2025-09-09 15:19 | 35.53203 | 126.90927 | 21058 ft | 455 kts | 0° |
| 2025-09-09 15:20 | 35.59514 | 126.91615 | 21053 ft | 456 kts | 0° |
| 2025-09-09 15:20 | 35.62681 | 126.91962 | 21048 ft | 456 kts | 0° |
| 2025-09-09 15:21 | 35.72143 | 126.93000 | 21044 ft | 457 kts | 0° |
| 2025-09-09 15:21 | 35.75306 | 126.93348 | 21045 ft | 456 kts | 0° |
| 2025-09-09 15:22 | 35.84804 | 126.94393 | 21047 ft | 456 kts | 0° |
| 2025-09-09 15:22 | 35.91131 | 126.95091 | 21050 ft | 456 kts | 0° |
| 2025-09-09 15:23 | 35.97448 | 126.95789 | 21049 ft | 456 kts | 0° |
| 2025-09-09 15:23 | 36.03770 | 126.96488 | 21046 ft | 456 kts | 0° |
| 2025-09-09 15:24 | 36.10091 | 126.97189 | 21047 ft | 456 kts | 0° |
| 2025-09-09 15:24 | 36.13251 | 126.97540 | 21046 ft | 456 kts | 0° |
| 2025-09-09 15:25 | 36.22729 | 126.98595 | 21044 ft | 455 kts | 0° |
| 2025-09-09 15:25 | 36.30851 | 126.99508 | 21032 ft | 424 kts | 360° |
| 2025-09-09 15:26 | 36.33794 | 126.99834 | 21050 ft | 421 kts | 360° |
| 2025-09-09 15:26 | 36.39603 | 127.00405 | 20844 ft | 411 kts | 355° |
| 2025-09-09 15:27 | 36.46173 | 127.00169 | 19582 ft | 406 kts | 352° |
| 2025-09-09 15:27 | 36.51797 | 126.99887 | 18636 ft | 401 kts | 354° |
| 2025-09-09 15:28 | 36.56441 | 126.99714 | 17836 ft | 396 kts | 354° |
| 2025-09-09 15:28 | 36.59153 | 126.99618 | 17378 ft | 392 kts | 354° |
| 2025-09-09 15:29 | 36.67258 | 126.99332 | 16000 ft | 381 kts | 355° |
| 2025-09-09 15:29 | 36.72514 | 126.99144 | 15118 ft | 375 kts | 355° |
| 2025-09-09 15:30 | 36.77654 | 126.98940 | 14226 ft | 369 kts | 355° |
| 2025-09-09 15:30 | 36.82747 | 126.98692 | 13290 ft | 363 kts | 355° |
| 2025-09-09 15:31 | 36.87650 | 126.99056 | 12677 ft | 353 kts | 23° |